sensor_id;sensor_type;location;lat;lon;timestamp;pressure;altitude;pressure_sealevel;temperature;humidity
17260;BME280;8746;49.230;9.220;2023-04-05T00:01:22;100620.31;;;-0.09;82.25
17260;BME280;8746;49.230;9.220;2023-04-05T00:03:50;100618.38;;;-0.22;80.92
17260;BME280;8746;49.230;9.220;2023-04-05T00:06:16;100616.75;;;-0.17;80.87
17260;BME280;8746;49.230;9.220;2023-04-05T00:08:42;100614.97;;;-0.20;82.08
17260;BME280;8746;49.230;9.220;2023-04-05T00:11:15;100606.31;;;-0.20;82.54
17260;BME280;8746;49.230;9.220;2023-04-05T00:13:41;100603.56;;;-0.31;82.04
17260;BME280;8746;49.230;9.220;2023-04-05T00:16:07;100606.91;;;-0.38;82.01
17260;BME280;8746;49.230;9.220;2023-04-05T00:18:32;100605.25;;;-0.35;83.02
17260;BME280;8746;49.230;9.220;2023-04-05T00:20:58;100596.78;;;-0.23;83.33
17260;BME280;8746;49.230;9.220;2023-04-05T00:23:24;100600.19;;;-0.25;83.35
17260;BME280;8746;49.230;9.220;2023-04-05T00:25:50;100586.34;;;-0.26;82.70
17260;BME280;8746;49.230;9.220;2023-04-05T00:28:16;100593.28;;;-0.25;83.69
17260;BME280;8746;49.230;9.220;2023-04-05T00:30:42;100587.16;;;-0.31;83.47
17260;BME280;8746;49.230;9.220;2023-04-05T00:33:07;100579.31;;;-0.35;83.32
17260;BME280;8746;49.230;9.220;2023-04-05T00:35:32;100583.72;;;-0.30;83.76
17260;BME280;8746;49.230;9.220;2023-04-05T00:37:58;100583.75;;;-0.27;83.41
17260;BME280;8746;49.230;9.220;2023-04-05T00:40:23;100582.81;;;-0.33;83.52
17260;BME280;8746;49.230;9.220;2023-04-05T00:42:49;100581.06;;;-0.35;83.91
17260;BME280;8746;49.230;9.220;2023-04-05T00:45:14;100581.94;;;-0.33;83.85
17260;BME280;8746;49.230;9.220;2023-04-05T00:47:40;100575.88;;;-0.34;84.28
17260;BME280;8746;49.230;9.220;2023-04-05T00:50:08;100571.41;;;-0.44;84.25
17260;BME280;8746;49.230;9.220;2023-04-05T00:52:34;100569.66;;;-0.45;84.28
17260;BME280;8746;49.230;9.220;2023-04-05T00:55:02;100559.34;;;-0.42;84.64
17260;BME280;8746;49.230;9.220;2023-04-05T00:57:30;100565.59;;;-0.29;83.88
17260;BME280;8746;49.230;9.220;2023-04-05T00:59:58;100566.00;;;-0.59;83.37
17260;BME280;8746;49.230;9.220;2023-04-05T01:02:31;100568.69;;;-0.52;84.02
17260;BME280;8746;49.230;9.220;2023-04-05T01:05:16;100567.94;;;-0.44;84.13
17260;BME280;8746;49.230;9.220;2023-04-05T01:07:55;100558.53;;;-0.38;83.42
17260;BME280;8746;49.230;9.220;2023-04-05T01:10:34;100563.81;;;-0.33;82.17
17260;BME280;8746;49.230;9.220;2023-04-05T01:13:02;100551.59;;;-0.40;83.21
17260;BME280;8746;49.230;9.220;2023-04-05T01:15:27;100550.69;;;-0.44;84.05
17260;BME280;8746;49.230;9.220;2023-04-05T01:17:53;100551.50;;;-0.46;83.52
17260;BME280;8746;49.230;9.220;2023-04-05T01:20:22;100557.38;;;-0.60;83.30
17260;BME280;8746;49.230;9.220;2023-04-05T01:23:27;100554.69;;;-0.65;84.24
17260;BME280;8746;49.230;9.220;2023-04-05T01:26:28;100544.41;;;-0.60;83.46
17260;BME280;8746;49.230;9.220;2023-04-05T01:31:59;100536.00;;;-0.43;83.27
17260;BME280;8746;49.230;9.220;2023-04-05T01:37:14;100535.81;;;-0.56;83.27
17260;BME280;8746;49.230;9.220;2023-04-05T01:39:42;100539.16;;;-0.63;83.54
17260;BME280;8746;49.230;9.220;2023-04-05T01:42:09;100547.78;;;-0.62;83.64
17260;BME280;8746;49.230;9.220;2023-04-05T01:44:34;100538.25;;;-0.67;83.76
17260;BME280;8746;49.230;9.220;2023-04-05T01:46:59;100531.94;;;-0.83;84.68
17260;BME280;8746;49.230;9.220;2023-04-05T01:49:25;100542.09;;;-0.97;85.82
17260;BME280;8746;49.230;9.220;2023-04-05T01:51:50;100540.25;;;-1.04;84.82
17260;BME280;8746;49.230;9.220;2023-04-05T01:54:15;100533.16;;;-1.14;85.67
17260;BME280;8746;49.230;9.220;2023-04-05T01:56:41;100537.47;;;-1.16;85.83
17260;BME280;8746;49.230;9.220;2023-04-05T01:59:06;100534.19;;;-1.04;85.96
17260;BME280;8746;49.230;9.220;2023-04-05T02:01:31;100539.63;;;-0.89;85.40
17260;BME280;8746;49.230;9.220;2023-04-05T02:03:57;100535.34;;;-0.87;85.04
17260;BME280;8746;49.230;9.220;2023-04-05T02:06:22;100533.41;;;-1.00;84.58
17260;BME280;8746;49.230;9.220;2023-04-05T02:08:48;100533.34;;;-1.03;85.37
17260;BME280;8746;49.230;9.220;2023-04-05T02:11:13;100536.75;;;-1.07;85.87
17260;BME280;8746;49.230;9.220;2023-04-05T02:13:38;100535.75;;;-1.14;85.80
17260;BME280;8746;49.230;9.220;2023-04-05T02:16:04;100523.53;;;-1.21;86.71
17260;BME280;8746;49.230;9.220;2023-04-05T02:18:29;100530.31;;;-1.30;86.56
17260;BME280;8746;49.230;9.220;2023-04-05T02:21:03;100527.56;;;-1.37;87.00
17260;BME280;8746;49.230;9.220;2023-04-05T02:23:29;100526.66;;;-1.41;86.48
17260;BME280;8746;49.230;9.220;2023-04-05T02:25:56;100515.53;;;-1.35;87.18
17260;BME280;8746;49.230;9.220;2023-04-05T02:28:21;100520.00;;;-1.28;86.52
17260;BME280;8746;49.230;9.220;2023-04-05T02:30:46;100519.09;;;-1.30;86.48
17260;BME280;8746;49.230;9.220;2023-04-05T02:33:12;100519.91;;;-1.31;86.52
17260;BME280;8746;49.230;9.220;2023-04-05T02:35:37;100520.66;;;-1.38;86.52
17260;BME280;8746;49.230;9.220;2023-04-05T02:38:03;100516.38;;;-1.38;86.51
17260;BME280;8746;49.230;9.220;2023-04-05T02:40:29;100513.59;;;-1.49;86.68
17260;BME280;8746;49.230;9.220;2023-04-05T02:42:54;100518.03;;;-1.41;87.07
17260;BME280;8746;49.230;9.220;2023-04-05T02:45:20;100511.81;;;-1.51;87.61
17260;BME280;8746;49.230;9.220;2023-04-05T02:47:45;100517.00;;;-1.50;87.78
17260;BME280;8746;49.230;9.220;2023-04-05T02:50:10;100510.97;;;-1.50;88.08
17260;BME280;8746;49.230;9.220;2023-04-05T02:52:36;100506.44;;;-1.62;87.29
17260;BME280;8746;49.230;9.220;2023-04-05T02:55:04;100515.03;;;-1.63;87.58
17260;BME280;8746;49.230;9.220;2023-04-05T02:57:29;100513.28;;;-1.64;88.09
17260;BME280;8746;49.230;9.220;2023-04-05T02:59:54;100511.72;;;-1.57;88.51
17260;BME280;8746;49.230;9.220;2023-04-05T03:02:20;100510.88;;;-1.56;88.07
17260;BME280;8746;49.230;9.220;2023-04-05T03:04:45;100511.50;;;-1.68;87.39
17260;BME280;8746;49.230;9.220;2023-04-05T03:07:11;100515.72;;;-1.73;87.58
17260;BME280;8746;49.230;9.220;2023-04-05T03:09:42;100514.81;;;-1.75;87.71
17260;BME280;8746;49.230;9.220;2023-04-05T03:12:08;100521.72;;;-1.74;88.11
17260;BME280;8746;49.230;9.220;2023-04-05T03:14:34;100513.13;;;-1.73;88.62
17260;BME280;8746;49.230;9.220;2023-04-05T03:16:59;100512.25;;;-1.74;88.68
17260;BME280;8746;49.230;9.220;2023-04-05T03:19:25;100518.19;;;-1.80;87.09
17260;BME280;8746;49.230;9.220;2023-04-05T03:21:52;100509.72;;;-1.72;88.48
17260;BME280;8746;49.230;9.220;2023-04-05T03:24:18;100509.81;;;-1.66;87.58
17260;BME280;8746;49.230;9.220;2023-04-05T03:26:47;100519.19;;;-1.71;87.26
17260;BME280;8746;49.230;9.220;2023-04-05T03:29:13;100506.22;;;-1.74;87.43
17260;BME280;8746;49.230;9.220;2023-04-05T03:31:38;100509.63;;;-1.75;87.64
17260;BME280;8746;49.230;9.220;2023-04-05T03:34:03;100512.97;;;-1.81;87.47
17260;BME280;8746;49.230;9.220;2023-04-05T03:36:29;100509.41;;;-1.88;87.17
17260;BME280;8746;49.230;9.220;2023-04-05T03:39:09;100503.44;;;-1.84;87.84
17260;BME280;8746;49.230;9.220;2023-04-05T03:41:35;100503.22;;;-1.95;88.58
17260;BME280;8746;49.230;9.220;2023-04-05T03:44:01;100512.59;;;-2.01;89.24
17260;BME280;8746;49.230;9.220;2023-04-05T03:46:26;100505.66;;;-2.02;88.97
17260;BME280;8746;49.230;9.220;2023-04-05T03:48:52;100504.72;;;-2.07;91.30
17260;BME280;8746;49.230;9.220;2023-04-05T03:51:17;100506.47;;;-2.06;91.82
17260;BME280;8746;49.230;9.220;2023-04-05T03:53:43;100510.00;;;-2.01;91.81
17260;BME280;8746;49.230;9.220;2023-04-05T03:56:08;100504.13;;;-1.94;92.16
17260;BME280;8746;49.230;9.220;2023-04-05T03:58:35;100502.31;;;-1.98;92.06
17260;BME280;8746;49.230;9.220;2023-04-05T04:01:01;100505.03;;;-1.90;92.41
17260;BME280;8746;49.230;9.220;2023-04-05T04:03:26;100498.25;;;-1.85;92.68
17260;BME280;8746;49.230;9.220;2023-04-05T04:05:53;100499.06;;;-1.88;92.05
17260;BME280;8746;49.230;9.220;2023-04-05T04:08:18;100493.03;;;-1.88;91.84
17260;BME280;8746;49.230;9.220;2023-04-05T04:10:44;100508.47;;;-1.91;91.28
17260;BME280;8746;49.230;9.220;2023-04-05T04:13:09;100497.22;;;-1.94;91.24
17260;BME280;8746;49.230;9.220;2023-04-05T04:15:34;100500.69;;;-1.93;91.41
17260;BME280;8746;49.230;9.220;2023-04-05T04:17:59;100500.69;;;-1.93;91.07
17260;BME280;8746;49.230;9.220;2023-04-05T04:20:25;100498.81;;;-2.00;90.43
17260;BME280;8746;49.230;9.220;2023-04-05T04:22:50;100496.03;;;-2.10;90.65
17260;BME280;8746;49.230;9.220;2023-04-05T04:25:18;100499.56;;;-2.06;91.87
17260;BME280;8746;49.230;9.220;2023-04-05T04:27:44;100501.44;;;-1.97;91.69
17260;BME280;8746;49.230;9.220;2023-04-05T04:30:12;100501.75;;;-1.83;91.35
17260;BME280;8746;49.230;9.220;2023-04-05T04:32:38;100498.44;;;-1.76;90.03
17260;BME280;8746;49.230;9.220;2023-04-05T04:35:17;100503.63;;;-1.74;89.26
17260;BME280;8746;49.230;9.220;2023-04-05T04:37:50;100494.00;;;-1.82;88.84
17260;BME280;8746;49.230;9.220;2023-04-05T04:40:17;100492.13;;;-1.89;88.96
17260;BME280;8746;49.230;9.220;2023-04-05T04:42:43;100491.31;;;-1.88;89.25
17260;BME280;8746;49.230;9.220;2023-04-05T04:45:19;100495.75;;;-1.81;88.83
17260;BME280;8746;49.230;9.220;2023-04-05T04:47:47;100506.13;;;-1.78;88.63
17260;BME280;8746;49.230;9.220;2023-04-05T04:50:13;100512.34;;;-1.69;88.27
17260;BME280;8746;49.230;9.220;2023-04-05T04:52:40;100515.75;;;-1.70;87.77
17260;BME280;8746;49.230;9.220;2023-04-05T04:55:07;100513.84;;;-1.81;88.39
17260;BME280;8746;49.230;9.220;2023-04-05T04:57:33;100516.31;;;-1.87;89.04
17260;BME280;8746;49.230;9.220;2023-04-05T04:59:58;100518.19;;;-1.80;88.11
17260;BME280;8746;49.230;9.220;2023-04-05T05:02:27;100519.88;;;-1.82;88.44
17260;BME280;8746;49.230;9.220;2023-04-05T05:04:53;100522.34;;;-1.88;88.49
17260;BME280;8746;49.230;9.220;2023-04-05T05:07:19;100520.94;;;-2.15;89.01
17260;BME280;8746;49.230;9.220;2023-04-05T05:09:45;100529.66;;;-2.10;89.89
17260;BME280;8746;49.230;9.220;2023-04-05T05:12:10;100522.81;;;-2.07;90.39
17260;BME280;8746;49.230;9.220;2023-04-05T05:14:36;100524.59;;;-2.03;90.52
17260;BME280;8746;49.230;9.220;2023-04-05T05:17:01;100520.81;;;-2.19;90.97
17260;BME280;8746;49.230;9.220;2023-04-05T05:19:29;100516.75;;;-2.08;91.30
17260;BME280;8746;49.230;9.220;2023-04-05T05:21:56;100524.69;;;-2.00;90.91
17260;BME280;8746;49.230;9.220;2023-04-05T05:24:21;100520.47;;;-1.95;90.94
17260;BME280;8746;49.230;9.220;2023-04-05T05:26:47;100515.97;;;-2.05;91.92
17260;BME280;8746;49.230;9.220;2023-04-05T05:29:12;100518.59;;;-2.02;91.96
17260;BME280;8746;49.230;9.220;2023-04-05T05:31:37;100519.50;;;-2.00;92.36
17260;BME280;8746;49.230;9.220;2023-04-05T05:34:03;100516.13;;;-1.96;91.45
17260;BME280;8746;49.230;9.220;2023-04-05T05:36:28;100511.06;;;-1.90;91.17
17260;BME280;8746;49.230;9.220;2023-04-05T05:38:55;100511.03;;;-1.93;90.39
17260;BME280;8746;49.230;9.220;2023-04-05T05:41:20;100512.00;;;-1.86;90.53
17260;BME280;8746;49.230;9.220;2023-04-05T05:43:46;100515.88;;;-1.64;89.76
17260;BME280;8746;49.230;9.220;2023-04-05T05:46:12;100507.28;;;-1.62;88.45
17260;BME280;8746;49.230;9.220;2023-04-05T05:48:38;100506.56;;;-1.56;88.38
17260;BME280;8746;49.230;9.220;2023-04-05T05:51:03;100513.81;;;-1.36;87.05
17260;BME280;8746;49.230;9.220;2023-04-05T05:53:35;100512.06;;;-1.37;86.61
17260;BME280;8746;49.230;9.220;2023-04-05T05:56:01;100514.38;;;-1.02;85.77
17260;BME280;8746;49.230;9.220;2023-04-05T05:58:26;100519.38;;;-1.11;85.87
17260;BME280;8746;49.230;9.220;2023-04-05T06:00:52;100521.19;;;-1.07;85.42
17260;BME280;8746;49.230;9.220;2023-04-05T06:03:24;100524.63;;;-1.08;84.25
17260;BME280;8746;49.230;9.220;2023-04-05T06:05:54;100516.97;;;-1.02;84.06
17260;BME280;8746;49.230;9.220;2023-04-05T06:08:19;100526.47;;;-1.03;83.94
17260;BME280;8746;49.230;9.220;2023-04-05T06:10:45;100525.88;;;-0.85;83.33
17260;BME280;8746;49.230;9.220;2023-04-05T06:13:10;100518.91;;;-0.87;82.62
17260;BME280;8746;49.230;9.220;2023-04-05T06:15:36;100523.19;;;-0.91;82.08
17260;BME280;8746;49.230;9.220;2023-04-05T06:18:01;100519.25;;;-0.67;82.52
17260;BME280;8746;49.230;9.220;2023-04-05T06:20:27;100526.22;;;-0.61;81.58
17260;BME280;8746;49.230;9.220;2023-04-05T06:22:52;100524.63;;;-0.53;81.00
17260;BME280;8746;49.230;9.220;2023-04-05T06:25:17;100527.38;;;-0.42;81.06
17260;BME280;8746;49.230;9.220;2023-04-05T06:27:43;100519.56;;;-0.44;80.28
17260;BME280;8746;49.230;9.220;2023-04-05T06:30:09;100535.22;;;-0.38;79.82
17260;BME280;8746;49.230;9.220;2023-04-05T06:32:34;100531.13;;;-0.19;79.16
17260;BME280;8746;49.230;9.220;2023-04-05T06:35:00;100526.75;;;-0.23;78.71
17260;BME280;8746;49.230;9.220;2023-04-05T06:37:28;100519.28;;;0.01;79.47
17260;BME280;8746;49.230;9.220;2023-04-05T06:39:53;100525.59;;;0.24;78.13
17260;BME280;8746;49.230;9.220;2023-04-05T06:42:19;100519.53;;;0.24;76.76
17260;BME280;8746;49.230;9.220;2023-04-05T06:44:44;100520.38;;;0.20;77.04
17260;BME280;8746;49.230;9.220;2023-04-05T06:47:10;100515.25;;;0.27;75.38
17260;BME280;8746;49.230;9.220;2023-04-05T06:49:36;100523.03;;;0.26;74.95
17260;BME280;8746;49.230;9.220;2023-04-05T06:52:01;100523.84;;;0.20;75.17
17260;BME280;8746;49.230;9.220;2023-04-05T06:54:30;100519.63;;;0.30;75.39
17260;BME280;8746;49.230;9.220;2023-04-05T06:56:56;100511.00;;;0.34;76.03
17260;BME280;8746;49.230;9.220;2023-04-05T06:59:22;100511.22;;;0.56;75.44
17260;BME280;8746;49.230;9.220;2023-04-05T07:01:47;100508.75;;;0.67;74.37
17260;BME280;8746;49.230;9.220;2023-04-05T07:04:12;100516.63;;;0.80;74.39
17260;BME280;8746;49.230;9.220;2023-04-05T07:06:38;100511.50;;;0.84;73.48
17260;BME280;8746;49.230;9.220;2023-04-05T07:09:04;100506.34;;;0.90;74.76
17260;BME280;8746;49.230;9.220;2023-04-05T07:11:29;100505.59;;;1.02;72.47
17260;BME280;8746;49.230;9.220;2023-04-05T07:13:59;100504.78;;;1.12;72.89
17260;BME280;8746;49.230;9.220;2023-04-05T07:16:25;100506.72;;;1.42;72.79
17260;BME280;8746;49.230;9.220;2023-04-05T07:18:50;100499.91;;;1.63;73.22
17260;BME280;8746;49.230;9.220;2023-04-05T07:21:16;100497.31;;;1.62;71.00
17260;BME280;8746;49.230;9.220;2023-04-05T07:23:41;100494.81;;;1.82;70.59
17260;BME280;8746;49.230;9.220;2023-04-05T07:26:07;100503.44;;;1.71;70.29
17260;BME280;8746;49.230;9.220;2023-04-05T07:28:33;100497.31;;;1.62;70.19
17260;BME280;8746;49.230;9.220;2023-04-05T07:31:00;100493.03;;;1.74;69.50
17260;BME280;8746;49.230;9.220;2023-04-05T07:33:26;100495.63;;;1.73;71.11
17260;BME280;8746;49.230;9.220;2023-04-05T07:35:52;100489.59;;;1.83;69.35
17260;BME280;8746;49.230;9.220;2023-04-05T07:38:18;100497.41;;;1.83;69.23
17260;BME280;8746;49.230;9.220;2023-04-05T07:40:44;100500.84;;;1.71;69.31
17260;BME280;8746;49.230;9.220;2023-04-05T07:43:09;100503.44;;;1.74;69.30
17260;BME280;8746;49.230;9.220;2023-04-05T07:45:36;100501.81;;;1.98;68.85
17260;BME280;8746;49.230;9.220;2023-04-05T07:48:01;100499.22;;;2.07;67.59
17260;BME280;8746;49.230;9.220;2023-04-05T07:50:26;100508.69;;;1.88;67.66
17260;BME280;8746;49.230;9.220;2023-04-05T07:52:52;100506.22;;;2.19;69.19
17260;BME280;8746;49.230;9.220;2023-04-05T07:55:17;100507.97;;;2.27;68.13
17260;BME280;8746;49.230;9.220;2023-04-05T07:57:42;100504.53;;;2.28;65.85
17260;BME280;8746;49.230;9.220;2023-04-05T08:00:08;100502.78;;;2.34;67.62
17260;BME280;8746;49.230;9.220;2023-04-05T08:02:37;100500.19;;;2.31;67.55
17260;BME280;8746;49.230;9.220;2023-04-05T08:05:03;100495.88;;;2.55;68.05
17260;BME280;8746;49.230;9.220;2023-04-05T08:07:29;100504.59;;;2.65;67.32
17260;BME280;8746;49.230;9.220;2023-04-05T08:09:54;100505.47;;;2.76;67.64
17260;BME280;8746;49.230;9.220;2023-04-05T08:12:22;100497.66;;;2.85;68.16
17260;BME280;8746;49.230;9.220;2023-04-05T08:14:47;100498.50;;;3.14;66.64
17260;BME280;8746;49.230;9.220;2023-04-05T08:17:13;100495.03;;;2.99;65.26
17260;BME280;8746;49.230;9.220;2023-04-05T08:19:39;100501.13;;;3.08;64.64
17260;BME280;8746;49.230;9.220;2023-04-05T08:22:04;100492.41;;;3.29;64.33
17260;BME280;8746;49.230;9.220;2023-04-05T08:24:30;100495.88;;;3.40;62.68
17260;BME280;8746;49.230;9.220;2023-04-05T08:26:55;100482.78;;;3.57;63.01
17260;BME280;8746;49.230;9.220;2023-04-05T08:29:21;100485.38;;;3.62;62.44
17260;BME280;8746;49.230;9.220;2023-04-05T08:31:46;100498.47;;;3.52;60.56
17260;BME280;8746;49.230;9.220;2023-04-05T08:34:11;100489.75;;;3.61;62.95
17260;BME280;8746;49.230;9.220;2023-04-05T08:36:37;100493.97;;;3.90;62.07
17260;BME280;8746;49.230;9.220;2023-04-05T08:39:02;100486.16;;;3.93;59.83
17260;BME280;8746;49.230;9.220;2023-04-05T08:41:40;100483.44;;;4.16;60.45
17260;BME280;8746;49.230;9.220;2023-04-05T08:44:11;100475.63;;;4.09;59.39
17260;BME280;8746;49.230;9.220;2023-04-05T08:46:37;100484.28;;;4.19;58.65
17260;BME280;8746;49.230;9.220;2023-04-05T08:49:06;100482.53;;;4.24;59.53
17260;BME280;8746;49.230;9.220;2023-04-05T08:51:32;100493.03;;;4.08;58.08
17260;BME280;8746;49.230;9.220;2023-04-05T08:54:00;100489.38;;;4.42;59.79
17260;BME280;8746;49.230;9.220;2023-04-05T08:56:31;100480.59;;;4.52;59.57
17260;BME280;8746;49.230;9.220;2023-04-05T08:59:06;100489.31;;;4.54;58.70
17260;BME280;8746;49.230;9.220;2023-04-05T09:01:37;100483.16;;;4.58;57.92
17260;BME280;8746;49.230;9.220;2023-04-05T09:04:08;100480.63;;;4.49;56.82
17260;BME280;8746;49.230;9.220;2023-04-05T09:06:35;100480.47;;;4.71;58.02
17260;BME280;8746;49.230;9.220;2023-04-05T09:09:04;100480.50;;;4.68;56.50
17260;BME280;8746;49.230;9.220;2023-04-05T09:11:32;100479.44;;;4.93;55.68
17260;BME280;8746;49.230;9.220;2023-04-05T09:13:57;100474.19;;;4.93;54.48
17260;BME280;8746;49.230;9.220;2023-04-05T09:16:24;100475.00;;;5.02;56.50
17260;BME280;8746;49.230;9.220;2023-04-05T09:18:51;100474.81;;;5.19;56.25
17260;BME280;8746;49.230;9.220;2023-04-05T09:21:16;100472.09;;;5.33;55.39
17260;BME280;8746;49.230;9.220;2023-04-05T09:23:50;100472.03;;;5.39;53.39
17260;BME280;8746;49.230;9.220;2023-04-05T09:26:18;100468.31;;;5.61;53.28
17260;BME280;8746;49.230;9.220;2023-04-05T09:28:44;100464.81;;;5.59;52.16
17260;BME280;8746;49.230;9.220;2023-04-05T09:31:28;100463.66;;;5.85;53.44
17260;BME280;8746;49.230;9.220;2023-04-05T09:33:56;100463.41;;;6.07;51.04
17260;BME280;8746;49.230;9.220;2023-04-05T09:36:22;100457.31;;;6.05;49.77
17260;BME280;8746;49.230;9.220;2023-04-05T09:38:47;100456.16;;;6.28;49.38
17260;BME280;8746;49.230;9.220;2023-04-05T09:41:12;100459.56;;;6.33;49.76
17260;BME280;8746;49.230;9.220;2023-04-05T09:43:39;100444.31;;;6.58;48.24
17260;BME280;8746;49.230;9.220;2023-04-05T09:46:04;100444.94;;;6.74;46.75
17260;BME280;8746;49.230;9.220;2023-04-05T09:48:48;100447.78;;;7.13;46.10
17260;BME280;8746;49.230;9.220;2023-04-05T09:51:14;100443.44;;;6.61;43.14
17260;BME280;8746;49.230;9.220;2023-04-05T09:54:04;100441.22;;;6.87;44.79
17260;BME280;8746;49.230;9.220;2023-04-05T09:56:34;100448.16;;;6.92;45.93
17260;BME280;8746;49.230;9.220;2023-04-05T09:59:02;100438.50;;;7.42;45.62
17260;BME280;8746;49.230;9.220;2023-04-05T10:01:30;100435.13;;;7.35;46.02
17260;BME280;8746;49.230;9.220;2023-04-05T10:03:57;100432.63;;;7.73;44.30
17260;BME280;8746;49.230;9.220;2023-04-05T10:06:41;100438.84;;;7.24;41.92
17260;BME280;8746;49.230;9.220;2023-04-05T10:09:08;100433.84;;;7.99;44.26
17260;BME280;8746;49.230;9.220;2023-04-05T10:11:36;100426.13;;;8.32;43.15
17260;BME280;8746;49.230;9.220;2023-04-05T10:14:04;100432.03;;;8.78;44.45
17260;BME280;8746;49.230;9.220;2023-04-05T10:16:52;100434.94;;;8.28;38.92
17260;BME280;8746;49.230;9.220;2023-04-05T10:19:28;100424.94;;;8.05;37.83
17260;BME280;8746;49.230;9.220;2023-04-05T10:21:59;100421.34;;;8.49;38.98
17260;BME280;8746;49.230;9.220;2023-04-05T10:27:03;100435.84;;;8.66;39.79
17260;BME280;8746;49.230;9.220;2023-04-05T10:29:37;100423.88;;;8.53;40.16
17260;BME280;8746;49.230;9.220;2023-04-05T10:32:10;100411.31;;;9.33;41.78
17260;BME280;8746;49.230;9.220;2023-04-05T10:34:56;100408.78;;;9.28;38.97
17260;BME280;8746;49.230;9.220;2023-04-05T10:37:36;100408.00;;;10.16;39.96
17260;BME280;8746;49.230;9.220;2023-04-05T10:40:07;100409.75;;;10.99;41.07
17260;BME280;8746;49.230;9.220;2023-04-05T10:42:45;100404.81;;;10.90;37.06
17260;BME280;8746;49.230;9.220;2023-04-05T10:45:12;100406.22;;;9.88;39.29
17260;BME280;8746;49.230;9.220;2023-04-05T10:47:47;100401.50;;;9.07;37.99
17260;BME280;8746;49.230;9.220;2023-04-05T10:50:21;100396.56;;;9.89;40.55
17260;BME280;8746;49.230;9.220;2023-04-05T10:52:48;100403.88;;;9.48;36.64
17260;BME280;8746;49.230;9.220;2023-04-05T10:55:15;100401.28;;;9.77;38.78
17260;BME280;8746;49.230;9.220;2023-04-05T10:57:41;100395.53;;;9.93;38.09
17260;BME280;8746;49.230;9.220;2023-04-05T11:00:09;100391.22;;;10.19;38.11
17260;BME280;8746;49.230;9.220;2023-04-05T11:02:36;100394.50;;;10.27;36.87
17260;BME280;8746;49.230;9.220;2023-04-05T11:05:05;100392.41;;;10.38;38.17
17260;BME280;8746;49.230;9.220;2023-04-05T11:07:43;100392.63;;;10.59;37.11
17260;BME280;8746;49.230;9.220;2023-04-05T11:10:17;100394.69;;;10.49;38.47
17260;BME280;8746;49.230;9.220;2023-04-05T11:23:19;100379.53;;;10.27;36.79
17260;BME280;8746;49.230;9.220;2023-04-05T11:25:55;100379.31;;;10.35;36.58
17260;BME280;8746;49.230;9.220;2023-04-05T11:28:28;100374.63;;;11.70;36.65
17260;BME280;8746;49.230;9.220;2023-04-05T11:30:55;100375.34;;;11.99;35.52
17260;BME280;8746;49.230;9.220;2023-04-05T11:36:08;100374.03;;;10.35;35.43
17260;BME280;8746;49.230;9.220;2023-04-05T11:38:35;100382.16;;;9.71;35.93
17260;BME280;8746;49.230;9.220;2023-04-05T11:41:14;100372.28;;;10.34;36.45
17260;BME280;8746;49.230;9.220;2023-04-05T11:43:46;100369.66;;;10.88;36.69
17260;BME280;8746;49.230;9.220;2023-04-05T11:46:14;100369.44;;;10.94;34.84
17260;BME280;8746;49.230;9.220;2023-04-05T11:48:40;100361.25;;;11.02;36.40
17260;BME280;8746;49.230;9.220;2023-04-05T11:51:08;100367.16;;;11.34;33.60
17260;BME280;8746;49.230;9.220;2023-04-05T11:53:37;100359.84;;;10.39;35.07
17260;BME280;8746;49.230;9.220;2023-04-05T11:56:10;100356.03;;;11.00;36.82
17260;BME280;8746;49.230;9.220;2023-04-05T11:58:37;100357.34;;;10.62;34.36
17260;BME280;8746;49.230;9.220;2023-04-05T12:01:05;100347.28;;;11.00;34.30
17260;BME280;8746;49.230;9.220;2023-04-05T12:03:32;100334.66;;;11.32;33.87
17260;BME280;8746;49.230;9.220;2023-04-05T12:06:02;100329.66;;;11.48;36.30
17260;BME280;8746;49.230;9.220;2023-04-05T12:11:10;100330.63;;;11.69;36.20
17260;BME280;8746;49.230;9.220;2023-04-05T12:13:37;100331.66;;;11.41;34.22
17260;BME280;8746;49.230;9.220;2023-04-05T12:16:05;100328.41;;;10.85;34.37
17260;BME280;8746;49.230;9.220;2023-04-05T12:18:33;100328.81;;;9.92;36.42
17260;BME280;8746;49.230;9.220;2023-04-05T12:21:00;100329.22;;;9.78;38.00
17260;BME280;8746;49.230;9.220;2023-04-05T12:23:25;100331.97;;;9.75;37.41
17260;BME280;8746;49.230;9.220;2023-04-05T12:25:53;100317.91;;;9.75;39.45
17260;BME280;8746;49.230;9.220;2023-04-05T12:28:19;100330.09;;;9.19;38.44
17260;BME280;8746;49.230;9.220;2023-04-05T12:30:52;100323.81;;;9.83;39.23
17260;BME280;8746;49.230;9.220;2023-04-05T12:33:29;100318.97;;;9.98;37.57
17260;BME280;8746;49.230;9.220;2023-04-05T12:35:55;100320.28;;;10.39;36.74
17260;BME280;8746;49.230;9.220;2023-04-05T12:38:25;100324.13;;;10.29;37.39
17260;BME280;8746;49.230;9.220;2023-04-05T12:40:51;100317.34;;;9.93;38.03
17260;BME280;8746;49.230;9.220;2023-04-05T12:43:17;100308.06;;;9.82;36.36
17260;BME280;8746;49.230;9.220;2023-04-05T12:45:44;100309.81;;;10.09;38.07
17260;BME280;8746;49.230;9.220;2023-04-05T12:48:19;100316.84;;;10.36;37.15
17260;BME280;8746;49.230;9.220;2023-04-05T12:50:47;100314.22;;;10.09;37.05
17260;BME280;8746;49.230;9.220;2023-04-05T12:53:19;100302.97;;;10.04;36.30
17260;BME280;8746;49.230;9.220;2023-04-05T12:55:51;100298.22;;;9.87;37.26
17260;BME280;8746;49.230;9.220;2023-04-05T12:58:18;100300.72;;;9.91;39.33
17260;BME280;8746;49.230;9.220;2023-04-05T13:00:44;100299.53;;;9.73;38.26
17260;BME280;8746;49.230;9.220;2023-04-05T13:03:15;100295.13;;;9.74;38.49
17260;BME280;8746;49.230;9.220;2023-04-05T13:05:41;100287.22;;;9.74;37.29
17260;BME280;8746;49.230;9.220;2023-04-05T13:08:06;100286.72;;;9.61;38.93
17260;BME280;8746;49.230;9.220;2023-04-05T13:10:32;100286.09;;;9.53;39.81
17260;BME280;8746;49.230;9.220;2023-04-05T13:12:57;100280.63;;;9.30;38.16
17260;BME280;8746;49.230;9.220;2023-04-05T13:15:23;100285.75;;;9.35;39.17
17260;BME280;8746;49.230;9.220;2023-04-05T13:17:48;100287.69;;;9.28;37.89
17260;BME280;8746;49.230;9.220;2023-04-05T13:20:15;100285.34;;;9.19;38.69
17260;BME280;8746;49.230;9.220;2023-04-05T13:22:41;100279.84;;;9.27;38.68
17260;BME280;8746;49.230;9.220;2023-04-05T13:25:07;100281.63;;;9.26;38.09
17260;BME280;8746;49.230;9.220;2023-04-05T13:27:33;100281.09;;;9.13;38.24
17260;BME280;8746;49.230;9.220;2023-04-05T13:29:58;100272.84;;;8.96;38.73
17260;BME280;8746;49.230;9.220;2023-04-05T13:32:24;100271.22;;;9.22;39.09